createdAt,value
2019-03-24T00:00:33.777Z,85.03
2019-03-24T00:03:01.378Z,82.27
2019-03-24T00:05:28.961Z,76.97
2019-03-24T00:07:56.956Z,81.00
2019-03-24T00:10:24.191Z,82.70
2019-03-24T00:12:51.774Z,85.70
2019-03-24T00:15:26.297Z,86.97
2019-03-24T00:17:46.985Z,80.20
2019-03-24T00:20:14.560Z,89.30
2019-03-24T00:22:42.180Z,84.37
2019-03-24T00:25:10.529Z,82.13
2019-03-24T00:27:38.111Z,83.87
2019-03-24T00:30:09.523Z,90.87
2019-03-24T00:32:37.117Z,83.87
2019-03-24T00:35:04.699Z,91.43
2019-03-24T00:37:33.092Z,87.50
2019-03-24T00:40:00.679Z,89.03
2019-03-24T00:42:28.260Z,82.60
2019-03-24T00:44:55.885Z,81.37
2019-03-24T00:47:23.476Z,93.27
2019-03-24T00:49:51.062Z,86.97
2019-03-24T00:52:18.675Z,94.53
2019-03-24T00:54:46.264Z,93.13
2019-03-24T00:57:13.868Z,90.00
2019-03-24T00:59:42.250Z,98.40
2019-03-24T01:02:10.607Z,97.93
2019-03-24T01:04:38.190Z,94.60
2019-03-24T01:07:06.576Z,98.83
2019-03-24T01:09:34.935Z,92.77
2019-03-24T01:12:02.523Z,92.20
2019-03-24T01:14:30.163Z,92.80
2019-03-24T01:16:57.731Z,90.60
2019-03-24T01:19:26.088Z,85.67
2019-03-24T01:21:53.704Z,90.63
2019-03-24T01:24:21.289Z,86.17
2019-03-24T01:26:49.158Z,87.17
2019-03-24T01:29:16.800Z,83.73
2019-03-24T01:31:44.396Z,82.90
2019-03-24T01:34:11.992Z,84.00
2019-03-24T01:36:40.380Z,94.45
2019-03-24T01:39:08.730Z,82.20
2019-03-24T01:41:36.318Z,86.83
2019-03-24T01:44:05.165Z,97.43
2019-03-24T01:46:32.752Z,91.47
2019-03-24T01:49:00.349Z,102.70
2019-03-24T01:51:27.988Z,107.10
2019-03-24T01:53:56.337Z,90.67
2019-03-24T01:56:23.927Z,100.43
2019-03-24T01:58:52.309Z,87.40
2019-03-24T02:01:19.923Z,92.43
2019-03-24T02:03:47.505Z,86.73
2019-03-24T02:06:15.125Z,86.17
2019-03-24T02:08:42.704Z,84.20
2019-03-24T02:11:10.291Z,92.60
2019-03-24T02:13:38.371Z,85.40
2019-03-24T02:16:09.641Z,87.70
2019-03-24T02:18:34.324Z,88.63
2019-03-24T02:21:01.942Z,85.63
2019-03-24T02:23:29.530Z,85.30
2019-03-24T02:25:57.108Z,82.33
2019-03-24T02:28:24.732Z,101.18
2019-03-24T02:30:52.318Z,93.60
2019-03-24T02:33:20.271Z,91.50
2019-03-24T02:35:47.934Z,83.23
2019-03-24T02:38:15.486Z,81.60
2019-03-24T02:40:43.067Z,80.57
2019-03-24T02:43:10.686Z,86.07
2019-03-24T02:45:38.333Z,95.70
2019-03-24T02:48:05.911Z,78.33
2019-03-24T02:50:33.551Z,83.93
2019-03-24T02:53:01.489Z,79.87
2019-03-24T02:55:29.059Z,80.73
2019-03-24T02:57:56.721Z,76.63
2019-03-24T03:00:24.565Z,93.27
2019-03-24T03:02:52.157Z,102.47
2019-03-24T03:05:19.793Z,84.47
2019-03-24T03:07:47.381Z,95.97
2019-03-24T03:10:14.966Z,87.23
2019-03-24T03:12:43.347Z,91.43
2019-03-24T03:15:11.702Z,92.50
2019-03-24T03:17:39.295Z,96.40
2019-03-24T03:20:06.924Z,87.53
2019-03-24T03:22:34.513Z,92.20
2019-03-24T03:25:02.871Z,93.23
2019-03-24T03:27:30.498Z,90.77
2019-03-24T03:29:58.089Z,94.70
2019-03-24T03:32:25.670Z,92.93
2019-03-24T03:34:54.056Z,95.30
2019-03-24T03:37:22.407Z,86.83
2019-03-24T03:39:50.004Z,84.67
2019-03-24T03:42:17.663Z,89.47
2019-03-24T03:44:46.015Z,87.90
2019-03-24T03:47:13.597Z,88.70
2019-03-24T03:49:41.214Z,91.77
2019-03-24T03:52:08.796Z,91.50
2019-03-24T03:54:36.379Z,91.70
2019-03-24T03:57:04.769Z,89.63
2019-03-24T03:59:33.186Z,85.73
2019-03-24T04:02:00.729Z,92.90
2019-03-24T04:04:29.480Z,92.83
2019-03-24T04:06:57.057Z,97.43
2019-03-24T04:09:25.414Z,96.47
2019-03-24T04:11:53.035Z,95.73
2019-03-24T04:14:20.623Z,117.00
2019-03-24T04:16:48.219Z,101.17
2019-03-24T04:19:15.838Z,91.50
2019-03-24T04:21:43.417Z,85.83
2019-03-24T04:24:11.010Z,86.57
2019-03-24T04:26:39.842Z,84.87
2019-03-24T04:29:07.844Z,82.50
2019-03-24T04:31:35.407Z,106.12
2019-03-24T04:34:03.025Z,95.83
2019-03-24T04:36:31.384Z,112.17
2019-03-24T04:38:58.976Z,113.00
2019-03-24T04:41:26.593Z,85.53
2019-03-24T04:43:54.944Z,85.47
2019-03-24T04:46:22.558Z,80.83
2019-03-24T04:48:50.221Z,101.43
2019-03-24T04:51:17.799Z,94.47
2019-03-24T04:53:45.385Z,83.87
2019-03-24T04:56:13.008Z,104.45
2019-03-24T04:58:40.593Z,103.43
2019-03-24T05:01:08.179Z,93.10
2019-03-24T05:03:35.802Z,88.40
2019-03-24T05:06:03.396Z,84.13
2019-03-24T05:08:30.960Z,94.20
2019-03-24T05:10:58.920Z,82.23
2019-03-24T05:13:26.504Z,84.50
2019-03-24T05:15:54.097Z,75.87
2019-03-24T05:18:21.728Z,100.43
2019-03-24T05:20:49.318Z,93.13
2019-03-24T05:23:17.680Z,106.50
2019-03-24T05:25:45.307Z,92.07
2019-03-24T05:28:12.943Z,87.70
2019-03-24T05:30:40.485Z,87.27
2019-03-24T05:33:08.906Z,102.20
2019-03-24T05:35:36.499Z,87.43
2019-03-24T05:38:04.092Z,83.00
2019-03-24T05:40:31.715Z,81.77
2019-03-24T05:42:59.303Z,84.53
2019-03-24T05:45:27.650Z,83.20
2019-03-24T05:47:55.344Z,79.77
2019-03-24T05:50:22.941Z,85.20
2019-03-24T05:52:50.525Z,88.07
2019-03-24T05:55:18.173Z,85.37
2019-03-24T05:57:45.761Z,98.67
2019-03-24T06:00:13.345Z,88.73
2019-03-24T06:02:41.052Z,102.72
2019-03-24T06:05:08.637Z,86.60
2019-03-24T06:07:36.225Z,108.23
2019-03-24T06:10:06.922Z,89.53
2019-03-24T06:12:35.875Z,88.13
2019-03-24T06:15:17.863Z,84.60
2019-03-24T06:17:48.164Z,98.35
2019-03-24T06:20:16.716Z,89.70
2019-03-24T06:22:45.999Z,83.80
2019-03-24T06:25:14.142Z,86.97
2019-03-24T06:27:47.238Z,77.13
2019-03-24T06:30:25.348Z,82.70
2019-03-24T06:54:46.058Z,84.57
2019-03-24T06:57:13.646Z,77.23
2019-03-24T06:59:41.238Z,78.83
2019-03-24T07:02:09.628Z,78.53
2019-03-24T07:04:37.228Z,80.50
2019-03-24T07:07:04.820Z,81.63
2019-03-24T07:09:32.443Z,80.03
2019-03-24T07:12:00.262Z,81.33
2019-03-24T07:14:27.627Z,82.40
2019-03-24T07:16:56.356Z,105.07
2019-03-24T07:19:23.958Z,90.17
2019-03-24T07:21:51.541Z,85.27
2019-03-24T07:24:19.943Z,80.13
2019-03-24T07:26:47.534Z,79.77
2019-03-24T07:29:15.138Z,80.20
2019-03-24T07:31:42.992Z,73.30
2019-03-24T07:34:10.594Z,74.43
2019-03-24T07:36:38.808Z,76.97
2019-03-24T07:39:06.488Z,77.97
2019-03-24T07:41:34.077Z,88.60
2019-03-24T07:44:01.661Z,76.77
2019-03-24T07:46:29.273Z,72.53
2019-03-24T07:48:56.857Z,73.60
2019-03-24T07:51:25.207Z,71.23
2019-03-24T07:53:52.939Z,78.53
2019-03-24T07:56:20.528Z,71.20
2019-03-24T07:58:48.107Z,76.93
2019-03-24T08:01:15.723Z,70.27
2019-03-24T08:03:43.320Z,70.40
2019-03-24T08:06:10.918Z,73.03
2019-03-24T08:08:44.276Z,68.50
2019-03-24T08:11:07.365Z,72.17
2019-03-24T08:13:35.726Z,79.45
2019-03-24T08:16:03.908Z,65.63
2019-03-24T08:18:31.524Z,77.65
2019-03-24T08:21:00.952Z,67.70
2019-03-24T08:23:28.579Z,64.83
2019-03-24T08:25:56.163Z,63.30
2019-03-24T08:28:23.750Z,61.40
2019-03-24T08:30:51.844Z,61.93
2019-03-24T08:33:20.200Z,63.87
2019-03-24T08:35:47.782Z,59.23
2019-03-24T08:38:15.419Z,75.95
2019-03-24T08:40:43.004Z,60.37
2019-03-24T08:43:10.646Z,59.47
2019-03-24T08:45:38.278Z,59.63
2019-03-24T08:48:05.872Z,56.17
2019-03-24T08:50:33.461Z,57.33
2019-03-24T08:53:01.865Z,55.30
2019-03-24T08:55:29.529Z,58.73
2019-03-24T08:57:57.110Z,58.17
2019-03-24T09:00:30.582Z,59.47
2019-03-24T09:02:53.073Z,58.50
2019-03-24T09:05:20.659Z,53.80
2019-03-24T09:07:48.297Z,55.10
2019-03-24T09:10:15.891Z,54.77
2019-03-24T09:12:43.511Z,55.50
2019-03-24T09:15:11.157Z,56.90
2019-03-24T09:17:41.120Z,49.10
2019-03-24T09:20:06.392Z,54.03
2019-03-24T09:22:34.768Z,52.83
2019-03-24T09:25:02.360Z,52.47
2019-03-24T09:27:29.985Z,49.07
2019-03-24T09:29:58.018Z,51.60
2019-03-24T09:32:25.611Z,46.90
2019-03-24T09:34:53.206Z,51.40
2019-03-24T09:37:20.847Z,45.63
2019-03-24T09:39:48.420Z,46.43
2019-03-24T09:42:16.019Z,44.00
2019-03-24T09:44:43.659Z,43.20
2019-03-24T09:47:11.574Z,45.67
2019-03-24T09:49:39.932Z,46.15
2019-03-24T09:52:07.576Z,44.63
2019-03-24T09:54:35.173Z,45.67
2019-03-24T09:57:02.790Z,40.67
2019-03-24T10:05:41.434Z,45.80
2019-03-24T10:24:26.730Z,46.08
2019-03-24T10:36:54.049Z,42.93
2019-03-24T10:40:00.182Z,40.77
2019-03-24T10:48:01.930Z,43.80
2019-03-24T10:50:43.091Z,40.43
2019-03-24T10:53:15.521Z,43.50
2019-03-24T10:55:42.141Z,46.47
2019-03-24T11:16:19.663Z,45.33
2019-03-24T11:19:03.734Z,45.40
2019-03-24T11:52:57.553Z,46.27
2019-03-24T11:55:34.517Z,40.33
2019-03-24T11:58:05.905Z,41.13
2019-03-24T12:00:32.986Z,44.67
2019-03-24T12:03:01.061Z,45.53
2019-03-24T12:05:28.620Z,44.70
2019-03-24T12:07:58.309Z,40.07
2019-03-24T12:10:26.977Z,44.37
2019-03-24T12:12:57.182Z,41.50
2019-03-24T12:15:25.156Z,39.67
2019-03-24T12:17:52.611Z,38.27
2019-03-24T12:20:20.207Z,39.80
2019-03-24T12:22:47.870Z,43.17
2019-03-24T12:25:15.560Z,38.93
2019-03-24T12:27:43.184Z,41.40
2019-03-24T12:30:11.137Z,40.70
2019-03-24T12:32:38.708Z,47.63
2019-03-24T12:35:07.151Z,44.23
2019-03-24T12:37:34.818Z,47.28
2019-03-24T12:40:02.426Z,45.23
2019-03-24T12:42:30.012Z,44.97
2019-03-24T12:44:57.669Z,43.87
2019-03-24T12:47:25.262Z,40.67
2019-03-24T12:49:52.853Z,41.23
2019-03-24T12:52:21.259Z,42.67
2019-03-24T12:54:48.882Z,39.33
2019-03-24T12:57:16.446Z,35.63
2019-03-24T12:59:44.429Z,36.50
2019-03-24T13:02:12.034Z,32.07
2019-03-24T13:04:39.643Z,34.70
2019-03-24T13:07:07.337Z,34.00
2019-03-24T13:09:34.939Z,32.07
2019-03-24T13:12:02.588Z,32.00
2019-03-24T13:14:30.836Z,31.57
2019-03-24T13:16:58.033Z,34.07
2019-03-24T13:19:25.650Z,32.17
2019-03-24T13:21:53.331Z,34.10
2019-03-24T13:24:21.327Z,31.70
2019-03-24T13:26:48.970Z,30.57
2019-03-24T13:29:16.604Z,30.00
2019-03-24T13:31:44.207Z,30.03
2019-03-24T13:34:11.795Z,34.95
2019-03-24T13:36:40.360Z,34.63
2019-03-24T13:39:08.013Z,33.50
2019-03-24T13:41:35.603Z,32.07
2019-03-24T13:44:03.393Z,33.33
2019-03-24T13:46:31.003Z,33.80
2019-03-24T13:48:58.723Z,32.27
2019-03-24T13:51:26.370Z,34.67
2019-03-24T13:53:54.070Z,31.93
2019-03-24T13:56:21.718Z,35.43
2019-03-24T13:58:50.312Z,32.17
2019-03-24T14:01:18.081Z,32.77
2019-03-24T14:03:48.130Z,32.00
2019-03-24T14:06:15.721Z,30.43
2019-03-24T14:08:43.315Z,30.23
2019-03-24T14:11:11.002Z,35.00
2019-03-24T14:13:38.729Z,33.20
2019-03-24T14:16:07.123Z,32.33
2019-03-24T14:18:34.792Z,28.27
2019-03-24T14:21:03.558Z,27.70
2019-03-24T14:23:31.204Z,27.17
2019-03-24T14:25:58.850Z,29.67
2019-03-24T14:28:26.541Z,27.47
2019-03-24T14:30:54.346Z,26.77
2019-03-24T14:33:21.880Z,27.20
2019-03-24T14:35:49.917Z,23.63
2019-03-24T14:38:17.498Z,26.80
2019-03-24T14:40:45.095Z,26.53
2019-03-24T14:43:12.752Z,30.43
2019-03-24T14:45:41.149Z,26.27
2019-03-24T14:48:08.740Z,26.33
2019-03-24T14:50:36.843Z,30.33
2019-03-24T14:53:04.473Z,30.03
2019-03-24T14:55:32.081Z,33.28
2019-03-24T14:58:01.369Z,32.10
2019-03-24T15:00:37.618Z,29.53
2019-03-24T15:03:05.252Z,32.37
2019-03-24T15:05:32.878Z,28.53
2019-03-24T15:08:00.474Z,34.80
2019-03-24T15:10:28.123Z,31.87
2019-03-24T15:12:55.725Z,33.70
2019-03-24T15:15:23.381Z,33.77
2019-03-24T15:17:51.829Z,32.13
2019-03-24T15:20:20.246Z,30.50
2019-03-24T15:22:47.847Z,29.33
2019-03-24T15:25:15.496Z,30.93
2019-03-24T15:27:43.122Z,27.80
2019-03-24T15:30:10.699Z,30.60
2019-03-24T15:32:38.392Z,26.73
2019-03-24T15:35:06.022Z,28.10
2019-03-24T15:37:33.680Z,24.93
2019-03-24T15:40:03.066Z,26.73
2019-03-24T15:42:30.651Z,25.73
2019-03-24T15:44:58.369Z,29.43
2019-03-24T15:47:26.055Z,25.30
2019-03-24T15:49:53.628Z,25.80
2019-03-24T15:52:24.051Z,24.50
2019-03-24T15:54:58.832Z,26.30
2019-03-24T15:57:26.518Z,24.73
2019-03-24T15:59:54.116Z,29.60
2019-03-24T16:02:24.968Z,25.40
2019-03-24T16:04:52.524Z,24.27
2019-03-24T16:07:20.121Z,27.00
2019-03-24T16:09:47.863Z,22.97
2019-03-24T16:12:15.476Z,19.37
2019-03-24T16:14:43.485Z,19.80
2019-03-24T16:17:11.502Z,17.63
2019-03-24T16:19:39.102Z,18.53
2019-03-24T16:22:06.835Z,18.83
2019-03-24T16:24:35.163Z,19.20
2019-03-24T16:27:03.513Z,16.57
2019-03-24T16:29:31.110Z,16.90
2019-03-24T16:31:59.365Z,19.53
2019-03-24T16:34:26.959Z,18.63
2019-03-24T16:36:54.547Z,17.23
2019-03-24T16:39:23.464Z,15.23
2019-03-24T16:41:51.055Z,16.47
2019-03-24T16:44:19.941Z,19.70
2019-03-24T16:46:47.718Z,21.43
2019-03-24T16:49:15.483Z,17.13
2019-03-24T16:51:43.993Z,20.20
2019-03-24T16:54:11.709Z,19.50
2019-03-24T16:56:39.296Z,16.17
2019-03-24T16:59:06.884Z,18.63
2019-03-24T17:01:34.532Z,16.43
2019-03-24T17:04:02.134Z,18.80
2019-03-24T17:06:29.721Z,14.60
2019-03-24T17:08:57.459Z,15.70
2019-03-24T17:11:25.059Z,16.43
2019-03-24T17:13:52.642Z,16.73
2019-03-24T17:16:21.390Z,15.43
2019-03-24T17:18:48.975Z,13.03
2019-03-24T17:21:16.570Z,19.13
2019-03-24T17:23:44.248Z,15.87
2019-03-24T17:26:12.605Z,11.20
2019-03-24T17:28:40.204Z,13.40
2019-03-24T17:31:08.237Z,11.97
2019-03-24T17:33:35.819Z,12.73
2019-03-24T17:36:03.800Z,13.32
2019-03-24T17:38:32.229Z,16.80
2019-03-24T17:40:59.823Z,13.87
2019-03-24T17:43:28.077Z,14.07
2019-03-24T17:45:55.852Z,12.40
2019-03-24T17:48:23.448Z,13.03
2019-03-24T17:50:51.796Z,11.85
2019-03-24T17:53:19.447Z,12.53
2019-03-24T17:55:47.031Z,9.75
2019-03-24T17:58:14.613Z,13.90
2019-03-24T18:00:42.353Z,9.60
2019-03-24T18:03:09.939Z,17.87
2019-03-24T18:05:37.535Z,12.67
2019-03-24T18:08:06.063Z,12.50
2019-03-24T18:10:33.646Z,12.90
2019-03-24T18:13:01.253Z,11.00
2019-03-24T18:15:28.883Z,11.57
2019-03-24T18:17:56.480Z,12.10
2019-03-24T18:20:32.716Z,12.33
2019-03-24T18:23:00.302Z,13.87
2019-03-24T18:25:27.887Z,15.70
2019-03-24T18:27:55.646Z,17.50
2019-03-24T18:30:23.249Z,16.40
2019-03-24T18:32:57.780Z,10.97
2019-03-24T18:35:25.601Z,16.00
2019-03-24T18:37:53.195Z,12.17
2019-03-24T18:40:21.550Z,13.50
2019-03-24T18:42:49.185Z,13.33
2019-03-24T18:45:16.775Z,14.07
2019-03-24T18:47:44.360Z,16.63
2019-03-24T18:50:12.758Z,16.07
2019-03-24T18:52:40.351Z,10.93
2019-03-24T18:55:07.940Z,13.27
2019-03-24T18:57:35.564Z,13.67
2019-03-24T19:00:05.628Z,11.88
2019-03-24T19:02:33.204Z,11.00
2019-03-24T19:05:01.607Z,12.60
2019-03-24T19:07:29.242Z,13.83
2019-03-24T19:09:56.792Z,8.60
2019-03-24T19:12:24.448Z,9.63
2019-03-24T19:14:52.360Z,10.75
2019-03-24T19:17:19.939Z,12.50
2019-03-24T19:19:47.604Z,10.83
2019-03-24T19:22:15.181Z,12.67
2019-03-24T19:24:42.763Z,7.63
2019-03-24T19:27:10.443Z,11.37
2019-03-24T19:29:37.985Z,10.07
2019-03-24T19:32:05.568Z,14.37
2019-03-24T19:34:33.198Z,11.30
2019-03-24T19:37:00.789Z,22.27
2019-03-24T19:39:28.375Z,26.33
2019-03-24T19:41:59.139Z,17.50
2019-03-24T19:44:26.731Z,17.10
2019-03-24T19:46:54.303Z,15.37
2019-03-24T19:49:21.935Z,11.07
2019-03-24T19:51:49.514Z,10.33
2019-03-24T19:54:17.094Z,13.17
2019-03-24T19:56:44.767Z,11.90
2019-03-24T19:59:12.342Z,14.27
2019-03-24T20:01:40.696Z,11.17
2019-03-24T20:04:08.348Z,10.73
2019-03-24T20:06:35.929Z,10.87
2019-03-24T20:09:04.340Z,11.75
2019-03-24T20:11:31.962Z,12.67
2019-03-24T20:13:59.539Z,8.17
2019-03-24T20:16:27.884Z,8.97
2019-03-24T20:18:55.509Z,10.10
2019-03-24T20:21:23.096Z,18.33
2019-03-24T20:23:50.674Z,20.97
2019-03-24T20:26:18.317Z,19.67
2019-03-24T20:28:48.998Z,21.37
2019-03-24T20:31:16.583Z,22.90
2019-03-24T20:33:44.232Z,17.60
2019-03-24T20:36:11.901Z,9.40
2019-03-24T20:38:39.549Z,15.03
2019-03-24T20:41:07.754Z,13.57
2019-03-24T20:43:36.162Z,10.20
2019-03-24T20:46:03.735Z,10.80
2019-03-24T20:48:31.507Z,11.60
2019-03-24T20:50:59.046Z,9.43
2019-03-24T20:53:26.645Z,10.10
2019-03-24T20:55:55.613Z,10.47
2019-03-24T20:58:23.195Z,11.43
2019-03-24T21:00:50.796Z,11.40
2019-03-24T21:03:18.477Z,11.20
2019-03-24T21:05:46.102Z,9.40
2019-03-24T21:08:13.697Z,11.77
2019-03-24T21:10:41.331Z,12.20
2019-03-24T21:13:09.670Z,16.33
2019-03-24T21:15:37.258Z,9.97
2019-03-24T21:18:04.906Z,12.67
2019-03-24T21:20:32.497Z,8.40
2019-03-24T21:23:00.849Z,10.00
2019-03-24T21:25:28.509Z,10.87
2019-03-24T21:27:56.104Z,13.53
2019-03-24T21:30:33.479Z,8.90
2019-03-24T21:33:01.180Z,8.47
2019-03-24T21:35:29.532Z,12.07
2019-03-24T21:37:57.932Z,10.93
2019-03-24T21:40:25.585Z,11.53
2019-03-24T21:42:53.941Z,10.30
2019-03-24T21:45:21.523Z,10.20
2019-03-24T21:47:50.849Z,8.97
2019-03-24T21:50:18.448Z,15.43
2019-03-24T21:52:46.032Z,9.10
2019-03-24T21:55:13.741Z,13.57
2019-03-24T21:57:41.315Z,10.50
2019-03-24T22:00:08.893Z,12.30
2019-03-24T22:02:39.152Z,12.43
2019-03-24T22:05:07.512Z,11.33
2019-03-24T22:07:35.106Z,10.57
2019-03-24T22:10:03.875Z,15.03
2019-03-24T22:12:31.460Z,8.83
2019-03-24T22:14:59.042Z,12.87
2019-03-24T22:17:26.742Z,13.20
2019-03-24T22:19:54.322Z,13.33
2019-03-24T22:22:21.910Z,14.87
2019-03-24T22:24:49.568Z,14.43
2019-03-24T22:27:17.924Z,11.97
2019-03-24T22:29:45.520Z,11.37
2019-03-24T22:32:13.223Z,13.17
2019-03-24T22:34:40.918Z,10.33
2019-03-24T22:37:15.749Z,10.40
2019-03-24T22:39:36.161Z,10.43
2019-03-24T22:42:04.530Z,13.20
2019-03-24T22:44:32.893Z,9.70
2019-03-24T22:47:00.580Z,14.67
2019-03-24T22:49:28.985Z,11.27
2019-03-24T22:52:06.762Z,13.33
2019-03-24T22:54:24.258Z,9.10
2019-03-24T22:56:51.925Z,17.47
2019-03-24T22:59:20.213Z,10.67
2019-03-24T23:01:47.832Z,10.40
2019-03-24T23:04:15.412Z,14.60
2019-03-24T23:06:43.022Z,21.33
2019-03-24T23:09:11.397Z,18.80
2019-03-24T23:11:39.746Z,25.67
2019-03-24T23:14:07.323Z,34.23
2019-03-24T23:16:34.954Z,32.47
2019-03-24T23:19:02.538Z,25.90
2019-03-24T23:21:31.619Z,21.43
2019-03-24T23:23:59.242Z,20.00
2019-03-24T23:26:27.141Z,13.88
2019-03-24T23:28:54.716Z,7.23
2019-03-24T23:31:22.412Z,9.43
2019-03-24T23:33:50.761Z,8.90
2019-03-24T23:36:18.343Z,16.43
2019-03-24T23:38:46.045Z,28.30
2019-03-24T23:41:13.626Z,26.97
2019-03-24T23:43:41.218Z,26.10
2019-03-24T23:46:08.919Z,19.33
2019-03-24T23:48:36.505Z,23.00
2019-03-24T23:51:04.094Z,25.80
2019-03-24T23:53:31.791Z,21.63
2019-03-24T23:56:00.144Z,31.97
2019-03-24T23:58:39.912Z,33.30
